Spurger, Texas
Current Conditions -  °F | °C
As of 7:35 AM on Thursday 23 Oct 2014 (Local Time) from KJAS Reporting Station
Clear Clear  
Wind Chill: 55°   Ceiling: Unl
Heat Index: 55°   Visibility: 10mi
Dew Point: 50°   Wind: 5mph
Humidity: 82%   Direction: 70°ENE
Pressure: 30.13"   Gusts: NA
Location:  30.69°N, 94.18°W
Report Text: KJAS 231235Z AUTO 07004KT 10SM CLR 13/10 A3013 RMK AO2 T01300100
Loading
Personal Weather Stations






























Interactive Weather Map
Tropical Storm Tracking
New forecast layout! Learn more

10-Day Weather Forecast

Advertisements
Track Severe Weather on mobile